sensor_id;sensor_type;location;lat;lon;timestamp;P1;durP1;ratioP1;P2;durP2;ratioP2
33810;SDS011;20119;48.334;16.206;2024-01-27T00:02:20;1.52;;;0.57;;
33810;SDS011;20119;48.334;16.206;2024-01-27T00:04:49;2.90;;;0.75;;
33810;SDS011;20119;48.334;16.206;2024-01-27T00:07:16;1.70;;;0.70;;
33810;SDS011;20119;48.334;16.206;2024-01-27T00:09:44;1.27;;;0.73;;
33810;SDS011;20119;48.334;16.206;2024-01-27T00:14:47;1.40;;;0.70;;
33810;SDS011;20119;48.334;16.206;2024-01-27T00:17:14;1.83;;;0.85;;
33810;SDS011;20119;48.334;16.206;2024-01-27T00:22:18;1.85;;;1.00;;
33810;SDS011;20119;48.334;16.206;2024-01-27T00:24:46;0.88;;;0.63;;
33810;SDS011;20119;48.334;16.206;2024-01-27T00:27:13;1.55;;;1.02;;
33810;SDS011;20119;48.334;16.206;2024-01-27T00:29:41;1.60;;;0.68;;
33810;SDS011;20119;48.334;16.206;2024-01-27T00:32:08;1.23;;;0.55;;
33810;SDS011;20119;48.334;16.206;2024-01-27T00:34:35;2.45;;;0.68;;
33810;SDS011;20119;48.334;16.206;2024-01-27T00:37:02;1.67;;;0.52;;
33810;SDS011;20119;48.334;16.206;2024-01-27T00:44:43;2.40;;;0.52;;
33810;SDS011;20119;48.334;16.206;2024-01-27T00:47:10;1.63;;;0.80;;
33810;SDS011;20119;48.334;16.206;2024-01-27T00:49:37;0.93;;;0.60;;
33810;SDS011;20119;48.334;16.206;2024-01-27T00:54:40;0.85;;;0.55;;
33810;SDS011;20119;48.334;16.206;2024-01-27T00:57:07;1.40;;;0.70;;
33810;SDS011;20119;48.334;16.206;2024-01-27T00:59:34;3.08;;;0.70;;
33810;SDS011;20119;48.334;16.206;2024-01-27T01:02:03;1.00;;;0.68;;
33810;SDS011;20119;48.334;16.206;2024-01-27T01:04:30;1.77;;;0.68;;
33810;SDS011;20119;48.334;16.206;2024-01-27T01:12:09;1.60;;;0.70;;
33810;SDS011;20119;48.334;16.206;2024-01-27T01:14:36;1.10;;;0.50;;
33810;SDS011;20119;48.334;16.206;2024-01-27T01:17:06;1.70;;;0.90;;
33810;SDS011;20119;48.334;16.206;2024-01-27T01:19:33;2.67;;;0.60;;
33810;SDS011;20119;48.334;16.206;2024-01-27T01:22:00;1.17;;;0.57;;
33810;SDS011;20119;48.334;16.206;2024-01-27T01:37:28;1.67;;;0.80;;
33810;SDS011;20119;48.334;16.206;2024-01-27T01:39:55;2.45;;;0.60;;
33810;SDS011;20119;48.334;16.206;2024-01-27T01:42:22;2.17;;;0.70;;
33810;SDS011;20119;48.334;16.206;2024-01-27T01:44:50;0.63;;;0.60;;
33810;SDS011;20119;48.334;16.206;2024-01-27T01:47:17;2.03;;;0.80;;
33810;SDS011;20119;48.334;16.206;2024-01-27T01:49:44;1.73;;;0.60;;
33810;SDS011;20119;48.334;16.206;2024-01-27T01:54:49;1.88;;;0.75;;
33810;SDS011;20119;48.334;16.206;2024-01-27T01:57:16;2.15;;;0.68;;
33810;SDS011;20119;48.334;16.206;2024-01-27T01:59:44;1.17;;;0.73;;
33810;SDS011;20119;48.334;16.206;2024-01-27T02:07:24;1.30;;;0.68;;
33810;SDS011;20119;48.334;16.206;2024-01-27T02:09:52;1.42;;;0.60;;
33810;SDS011;20119;48.334;16.206;2024-01-27T02:12:20;1.30;;;0.73;;
33810;SDS011;20119;48.334;16.206;2024-01-27T02:14:47;1.33;;;0.70;;
33810;SDS011;20119;48.334;16.206;2024-01-27T02:17:14;2.33;;;0.88;;
33810;SDS011;20119;48.334;16.206;2024-01-27T02:22:17;3.40;;;0.85;;
33810;SDS011;20119;48.334;16.206;2024-01-27T02:27:22;2.17;;;0.80;;
33810;SDS011;20119;48.334;16.206;2024-01-27T02:35:00;1.73;;;0.80;;
33810;SDS011;20119;48.334;16.206;2024-01-27T02:37:28;2.20;;;0.80;;
33810;SDS011;20119;48.334;16.206;2024-01-27T02:39:55;2.42;;;0.63;;
33810;SDS011;20119;48.334;16.206;2024-01-27T02:42:24;1.27;;;0.52;;
33810;SDS011;20119;48.334;16.206;2024-01-27T02:50:03;2.10;;;0.70;;
33810;SDS011;20119;48.334;16.206;2024-01-27T02:52:31;1.38;;;0.70;;
33810;SDS011;20119;48.334;16.206;2024-01-27T02:54:58;2.50;;;0.85;;
33810;SDS011;20119;48.334;16.206;2024-01-27T03:00:03;1.85;;;0.60;;
33810;SDS011;20119;48.334;16.206;2024-01-27T03:02:30;2.83;;;0.85;;
33810;SDS011;20119;48.334;16.206;2024-01-27T03:04:57;1.23;;;0.68;;
33810;SDS011;20119;48.334;16.206;2024-01-27T03:07:24;2.65;;;0.80;;
33810;SDS011;20119;48.334;16.206;2024-01-27T03:09:52;1.90;;;1.20;;
33810;SDS011;20119;48.334;16.206;2024-01-27T03:12:19;3.45;;;1.63;;
33810;SDS011;20119;48.334;16.206;2024-01-27T03:14:48;5.50;;;1.92;;
33810;SDS011;20119;48.334;16.206;2024-01-27T03:17:17;3.67;;;2.20;;
33810;SDS011;20119;48.334;16.206;2024-01-27T03:19:44;4.40;;;2.33;;
33810;SDS011;20119;48.334;16.206;2024-01-27T03:22:12;5.38;;;2.80;;
33810;SDS011;20119;48.334;16.206;2024-01-27T03:24:39;6.00;;;2.70;;
33810;SDS011;20119;48.334;16.206;2024-01-27T03:37:48;7.97;;;3.38;;
33810;SDS011;20119;48.334;16.206;2024-01-27T03:40:16;5.07;;;3.40;;
33810;SDS011;20119;48.334;16.206;2024-01-27T03:42:43;7.25;;;3.30;;
33810;SDS011;20119;48.334;16.206;2024-01-27T03:45:11;6.45;;;3.50;;
33810;SDS011;20119;48.334;16.206;2024-01-27T03:47:38;5.45;;;2.95;;
33810;SDS011;20119;48.334;16.206;2024-01-27T03:50:05;7.53;;;3.25;;
33810;SDS011;20119;48.334;16.206;2024-01-27T03:55:10;6.53;;;3.40;;
33810;SDS011;20119;48.334;16.206;2024-01-27T03:57:37;6.47;;;3.10;;
33810;SDS011;20119;48.334;16.206;2024-01-27T04:05:16;6.50;;;3.15;;
33810;SDS011;20119;48.334;16.206;2024-01-27T04:07:43;4.97;;;3.20;;
33810;SDS011;20119;48.334;16.206;2024-01-27T04:10:12;7.45;;;3.55;;
33810;SDS011;20119;48.334;16.206;2024-01-27T04:12:40;7.70;;;3.70;;
33810;SDS011;20119;48.334;16.206;2024-01-27T04:15:08;8.20;;;3.70;;
33810;SDS011;20119;48.334;16.206;2024-01-27T04:17:36;5.60;;;3.40;;
33810;SDS011;20119;48.334;16.206;2024-01-27T04:20:05;8.63;;;3.80;;
33810;SDS011;20119;48.334;16.206;2024-01-27T04:22:33;6.03;;;3.10;;
33810;SDS011;20119;48.334;16.206;2024-01-27T04:25:00;6.75;;;3.25;;
33810;SDS011;20119;48.334;16.206;2024-01-27T04:27:30;6.63;;;3.30;;
33810;SDS011;20119;48.334;16.206;2024-01-27T04:29:57;6.13;;;3.60;;
33810;SDS011;20119;48.334;16.206;2024-01-27T04:32:24;6.45;;;3.92;;
33810;SDS011;20119;48.334;16.206;2024-01-27T04:34:51;6.93;;;3.95;;
33810;SDS011;20119;48.334;16.206;2024-01-27T04:37:19;8.05;;;4.05;;
33810;SDS011;20119;48.334;16.206;2024-01-27T04:39:46;7.30;;;4.05;;
33810;SDS011;20119;48.334;16.206;2024-01-27T04:47:26;7.60;;;4.00;;
33810;SDS011;20119;48.334;16.206;2024-01-27T04:49:54;8.18;;;3.90;;
33810;SDS011;20119;48.334;16.206;2024-01-27T04:52:22;6.45;;;3.97;;
33810;SDS011;20119;48.334;16.206;2024-01-27T05:02:40;7.85;;;4.35;;
33810;SDS011;20119;48.334;16.206;2024-01-27T05:05:08;6.53;;;4.13;;
33810;SDS011;20119;48.334;16.206;2024-01-27T05:07:37;8.68;;;4.30;;
33810;SDS011;20119;48.334;16.206;2024-01-27T05:10:04;7.82;;;4.15;;
33810;SDS011;20119;48.334;16.206;2024-01-27T05:12:32;8.38;;;3.95;;
33810;SDS011;20119;48.334;16.206;2024-01-27T05:14:59;7.35;;;3.97;;
33810;SDS011;20119;48.334;16.206;2024-01-27T05:20:08;7.53;;;3.85;;
33810;SDS011;20119;48.334;16.206;2024-01-27T05:22:35;6.97;;;3.67;;
33810;SDS011;20119;48.334;16.206;2024-01-27T05:27:38;7.05;;;3.75;;
33810;SDS011;20119;48.334;16.206;2024-01-27T05:30:06;8.15;;;3.67;;
33810;SDS011;20119;48.334;16.206;2024-01-27T05:32:33;8.05;;;3.40;;
33810;SDS011;20119;48.334;16.206;2024-01-27T05:35:01;6.55;;;3.67;;
33810;SDS011;20119;48.334;16.206;2024-01-27T05:37:31;7.65;;;3.35;;
33810;SDS011;20119;48.334;16.206;2024-01-27T05:39:58;8.18;;;4.10;;
33810;SDS011;20119;48.334;16.206;2024-01-27T05:47:37;8.10;;;3.83;;
33810;SDS011;20119;48.334;16.206;2024-01-27T05:57:46;5.30;;;3.40;;
33810;SDS011;20119;48.334;16.206;2024-01-27T06:00:13;8.27;;;3.38;;
33810;SDS011;20119;48.334;16.206;2024-01-27T06:02:40;6.60;;;3.47;;
33810;SDS011;20119;48.334;16.206;2024-01-27T06:05:08;7.32;;;3.22;;
33810;SDS011;20119;48.334;16.206;2024-01-27T06:07:37;6.75;;;3.88;;
33810;SDS011;20119;48.334;16.206;2024-01-27T06:10:06;7.13;;;3.47;;
33810;SDS011;20119;48.334;16.206;2024-01-27T06:17:47;6.32;;;3.90;;
33810;SDS011;20119;48.334;16.206;2024-01-27T06:20:15;6.95;;;3.35;;
33810;SDS011;20119;48.334;16.206;2024-01-27T06:22:46;8.98;;;3.47;;
33810;SDS011;20119;48.334;16.206;2024-01-27T06:25:14;6.78;;;3.70;;
33810;SDS011;20119;48.334;16.206;2024-01-27T06:30:17;7.57;;;3.05;;
33810;SDS011;20119;48.334;16.206;2024-01-27T06:32:44;7.57;;;3.30;;
33810;SDS011;20119;48.334;16.206;2024-01-27T06:35:13;7.50;;;3.45;;
33810;SDS011;20119;48.334;16.206;2024-01-27T06:37:40;7.03;;;3.40;;
33810;SDS011;20119;48.334;16.206;2024-01-27T06:40:08;8.90;;;4.10;;
33810;SDS011;20119;48.334;16.206;2024-01-27T06:42:35;7.30;;;3.55;;
33810;SDS011;20119;48.334;16.206;2024-01-27T06:45:03;8.13;;;3.80;;
33810;SDS011;20119;48.334;16.206;2024-01-27T06:49:59;7.43;;;3.60;;
33810;SDS011;20119;48.334;16.206;2024-01-27T06:52:27;7.20;;;3.90;;
33810;SDS011;20119;48.334;16.206;2024-01-27T06:54:54;7.72;;;3.60;;
33810;SDS011;20119;48.334;16.206;2024-01-27T06:59:57;11.25;;;3.80;;
33810;SDS011;20119;48.334;16.206;2024-01-27T07:05:00;9.05;;;4.10;;
33810;SDS011;20119;48.334;16.206;2024-01-27T07:07:29;10.52;;;4.53;;
33810;SDS011;20119;48.334;16.206;2024-01-27T07:09:56;8.23;;;4.60;;
33810;SDS011;20119;48.334;16.206;2024-01-27T07:17:30;8.63;;;6.13;;
33810;SDS011;20119;48.334;16.206;2024-01-27T07:19:58;10.18;;;4.78;;
33810;SDS011;20119;48.334;16.206;2024-01-27T07:22:25;8.45;;;4.57;;
33810;SDS011;20119;48.334;16.206;2024-01-27T07:24:54;8.88;;;4.13;;
33810;SDS011;20119;48.334;16.206;2024-01-27T07:27:21;6.25;;;3.78;;
33810;SDS011;20119;48.334;16.206;2024-01-27T07:29:50;6.05;;;3.80;;
33810;SDS011;20119;48.334;16.206;2024-01-27T07:34:54;7.63;;;3.83;;
33810;SDS011;20119;48.334;16.206;2024-01-27T07:39:58;7.85;;;3.97;;
33810;SDS011;20119;48.334;16.206;2024-01-27T07:42:26;7.32;;;4.40;;
33810;SDS011;20119;48.334;16.206;2024-01-27T07:44:54;7.00;;;3.80;;
33810;SDS011;20119;48.334;16.206;2024-01-27T07:47:21;8.70;;;3.88;;
33810;SDS011;20119;48.334;16.206;2024-01-27T07:52:24;9.05;;;4.07;;
33810;SDS011;20119;48.334;16.206;2024-01-27T07:54:52;7.38;;;3.60;;
33810;SDS011;20119;48.334;16.206;2024-01-27T08:05:12;6.80;;;3.38;;
33810;SDS011;20119;48.334;16.206;2024-01-27T08:07:39;7.07;;;3.55;;
33810;SDS011;20119;48.334;16.206;2024-01-27T08:10:06;8.13;;;3.30;;
33810;SDS011;20119;48.334;16.206;2024-01-27T08:15:12;8.23;;;3.90;;
33810;SDS011;20119;48.334;16.206;2024-01-27T08:17:39;6.03;;;3.67;;
33810;SDS011;20119;48.334;16.206;2024-01-27T08:25:12;6.82;;;3.70;;
33810;SDS011;20119;48.334;16.206;2024-01-27T08:38:04;9.10;;;3.70;;
33810;SDS011;20119;48.334;16.206;2024-01-27T08:40:37;5.95;;;3.17;;
33810;SDS011;20119;48.334;16.206;2024-01-27T08:43:06;10.15;;;3.88;;
33810;SDS011;20119;48.334;16.206;2024-01-27T08:45:35;8.38;;;3.58;;
33810;SDS011;20119;48.334;16.206;2024-01-27T08:50:38;6.90;;;3.70;;
33810;SDS011;20119;48.334;16.206;2024-01-27T08:53:06;7.35;;;3.40;;
33810;SDS011;20119;48.334;16.206;2024-01-27T08:55:36;7.85;;;3.50;;
33810;SDS011;20119;48.334;16.206;2024-01-27T08:58:14;10.17;;;3.80;;
33810;SDS011;20119;48.334;16.206;2024-01-27T09:00:42;7.32;;;3.60;;
33810;SDS011;20119;48.334;16.206;2024-01-27T09:03:10;8.98;;;3.72;;
33810;SDS011;20119;48.334;16.206;2024-01-27T09:13:28;8.95;;;4.40;;
33810;SDS011;20119;48.334;16.206;2024-01-27T09:15:57;10.98;;;6.60;;
33810;SDS011;20119;48.334;16.206;2024-01-27T09:18:25;7.03;;;3.67;;
33810;SDS011;20119;48.334;16.206;2024-01-27T09:20:53;7.70;;;3.25;;
33810;SDS011;20119;48.334;16.206;2024-01-27T09:31:02;7.82;;;3.53;;
33810;SDS011;20119;48.334;16.206;2024-01-27T09:33:30;8.07;;;3.42;;
33810;SDS011;20119;48.334;16.206;2024-01-27T09:36:00;7.20;;;3.42;;
33810;SDS011;20119;48.334;16.206;2024-01-27T09:49:05;10.75;;;5.10;;
33810;SDS011;20119;48.334;16.206;2024-01-27T09:59:19;7.50;;;4.50;;
33810;SDS011;20119;48.334;16.206;2024-01-27T10:01:47;9.45;;;5.10;;
33810;SDS011;20119;48.334;16.206;2024-01-27T10:04:17;8.90;;;5.20;;
33810;SDS011;20119;48.334;16.206;2024-01-27T10:11:57;9.88;;;5.05;;
33810;SDS011;20119;48.334;16.206;2024-01-27T10:19:39;9.48;;;5.40;;
33810;SDS011;20119;48.334;16.206;2024-01-27T10:22:06;8.27;;;4.50;;
33810;SDS011;20119;48.334;16.206;2024-01-27T10:27:10;7.60;;;4.43;;
33810;SDS011;20119;48.334;16.206;2024-01-27T10:29:37;9.02;;;3.42;;
33810;SDS011;20119;48.334;16.206;2024-01-27T10:37:16;7.03;;;2.08;;
33810;SDS011;20119;48.334;16.206;2024-01-27T10:42:10;5.22;;;2.08;;
33810;SDS011;20119;48.334;16.206;2024-01-27T10:44:38;5.45;;;2.05;;
33810;SDS011;20119;48.334;16.206;2024-01-27T10:49:43;6.88;;;1.95;;
33810;SDS011;20119;48.334;16.206;2024-01-27T10:52:11;6.38;;;2.10;;
33810;SDS011;20119;48.334;16.206;2024-01-27T11:04:59;9.98;;;2.35;;
33810;SDS011;20119;48.334;16.206;2024-01-27T11:07:27;13.18;;;2.25;;
33810;SDS011;20119;48.334;16.206;2024-01-27T11:12:31;6.43;;;2.08;;
33810;SDS011;20119;48.334;16.206;2024-01-27T11:14:59;6.50;;;2.20;;
33810;SDS011;20119;48.334;16.206;2024-01-27T11:17:27;6.20;;;2.08;;
33810;SDS011;20119;48.334;16.206;2024-01-27T11:27:36;8.88;;;2.05;;
33810;SDS011;20119;48.334;16.206;2024-01-27T11:30:04;5.85;;;1.90;;
33810;SDS011;20119;48.334;16.206;2024-01-27T11:32:33;5.10;;;2.13;;
33810;SDS011;20119;48.334;16.206;2024-01-27T11:35:00;6.60;;;1.88;;
33810;SDS011;20119;48.334;16.206;2024-01-27T11:40:06;8.65;;;1.98;;
33810;SDS011;20119;48.334;16.206;2024-01-27T11:42:34;6.18;;;1.92;;
33810;SDS011;20119;48.334;16.206;2024-01-27T11:45:03;7.55;;;2.00;;
33810;SDS011;20119;48.334;16.206;2024-01-27T11:52:42;4.20;;;1.50;;
33810;SDS011;20119;48.334;16.206;2024-01-27T11:57:45;6.47;;;1.85;;
33810;SDS011;20119;48.334;16.206;2024-01-27T12:10:38;7.53;;;1.73;;
33810;SDS011;20119;48.334;16.206;2024-01-27T12:33:52;7.82;;;1.80;;
33810;SDS011;20119;48.334;16.206;2024-01-27T12:36:20;5.38;;;1.88;;
33810;SDS011;20119;48.334;16.206;2024-01-27T12:38:52;5.22;;;1.80;;
33810;SDS011;20119;48.334;16.206;2024-01-27T12:41:20;7.25;;;1.65;;
33810;SDS011;20119;48.334;16.206;2024-01-27T12:46:23;4.22;;;1.60;;
33810;SDS011;20119;48.334;16.206;2024-01-27T12:48:52;4.05;;;1.17;;
33810;SDS011;20119;48.334;16.206;2024-01-27T12:51:19;5.50;;;1.48;;
33810;SDS011;20119;48.334;16.206;2024-01-27T12:53:47;3.85;;;1.60;;
33810;SDS011;20119;48.334;16.206;2024-01-27T13:04:03;4.70;;;1.60;;
33810;SDS011;20119;48.334;16.206;2024-01-27T13:06:31;5.93;;;1.60;;
33810;SDS011;20119;48.334;16.206;2024-01-27T13:08:58;5.80;;;1.40;;
33810;SDS011;20119;48.334;16.206;2024-01-27T13:11:26;5.85;;;1.50;;
33810;SDS011;20119;48.334;16.206;2024-01-27T13:13:53;7.00;;;1.88;;
33810;SDS011;20119;48.334;16.206;2024-01-27T13:16:21;6.53;;;1.80;;
33810;SDS011;20119;48.334;16.206;2024-01-27T13:18:48;5.28;;;1.90;;
33810;SDS011;20119;48.334;16.206;2024-01-27T13:23:45;6.97;;;1.70;;
33810;SDS011;20119;48.334;16.206;2024-01-27T13:26:12;5.13;;;1.70;;
33810;SDS011;20119;48.334;16.206;2024-01-27T13:28:41;5.10;;;1.80;;
33810;SDS011;20119;48.334;16.206;2024-01-27T13:33:44;8.38;;;1.90;;
33810;SDS011;20119;48.334;16.206;2024-01-27T13:36:11;5.93;;;1.77;;
33810;SDS011;20119;48.334;16.206;2024-01-27T13:41:15;6.55;;;1.70;;
33810;SDS011;20119;48.334;16.206;2024-01-27T13:43:43;5.25;;;1.67;;
33810;SDS011;20119;48.334;16.206;2024-01-27T13:46:10;5.10;;;1.70;;
33810;SDS011;20119;48.334;16.206;2024-01-27T13:48:37;5.45;;;1.85;;
33810;SDS011;20119;48.334;16.206;2024-01-27T13:51:04;5.43;;;1.58;;
33810;SDS011;20119;48.334;16.206;2024-01-27T13:56:00;5.03;;;1.60;;
33810;SDS011;20119;48.334;16.206;2024-01-27T13:58:31;4.80;;;1.85;;
33810;SDS011;20119;48.334;16.206;2024-01-27T14:00:58;4.95;;;1.63;;
33810;SDS011;20119;48.334;16.206;2024-01-27T14:03:25;6.03;;;1.88;;
33810;SDS011;20119;48.334;16.206;2024-01-27T14:05:52;3.78;;;1.60;;
33810;SDS011;20119;48.334;16.206;2024-01-27T14:16:10;4.55;;;1.60;;
33810;SDS011;20119;48.334;16.206;2024-01-27T14:18:46;5.68;;;1.58;;
33810;SDS011;20119;48.334;16.206;2024-01-27T14:21:13;4.60;;;1.63;;
33810;SDS011;20119;48.334;16.206;2024-01-27T14:28:53;2.78;;;1.55;;
33810;SDS011;20119;48.334;16.206;2024-01-27T14:33:57;4.60;;;1.70;;
33810;SDS011;20119;48.334;16.206;2024-01-27T14:39:00;7.10;;;2.13;;
33810;SDS011;20119;48.334;16.206;2024-01-27T14:49:16;6.68;;;2.20;;
33810;SDS011;20119;48.334;16.206;2024-01-27T14:51:44;5.15;;;2.03;;
33810;SDS011;20119;48.334;16.206;2024-01-27T14:54:11;5.68;;;2.15;;
33810;SDS011;20119;48.334;16.206;2024-01-27T14:59:21;5.35;;;1.95;;
33810;SDS011;20119;48.334;16.206;2024-01-27T15:01:48;8.90;;;2.00;;
33810;SDS011;20119;48.334;16.206;2024-01-27T15:09:23;7.05;;;2.10;;
33810;SDS011;20119;48.334;16.206;2024-01-27T15:11:51;5.27;;;1.80;;
33810;SDS011;20119;48.334;16.206;2024-01-27T15:16:54;4.85;;;1.77;;
33810;SDS011;20119;48.334;16.206;2024-01-27T15:21:58;7.03;;;2.10;;
33810;SDS011;20119;48.334;16.206;2024-01-27T15:24:26;6.63;;;2.53;;
33810;SDS011;20119;48.334;16.206;2024-01-27T15:32:06;4.60;;;2.55;;
33810;SDS011;20119;48.334;16.206;2024-01-27T15:34:33;10.70;;;2.60;;
33810;SDS011;20119;48.334;16.206;2024-01-27T15:39:37;6.38;;;2.60;;
33810;SDS011;20119;48.334;16.206;2024-01-27T15:42:05;5.68;;;2.38;;
33810;SDS011;20119;48.334;16.206;2024-01-27T15:44:32;7.50;;;2.50;;
33810;SDS011;20119;48.334;16.206;2024-01-27T15:46:59;7.18;;;2.53;;
33810;SDS011;20119;48.334;16.206;2024-01-27T15:49:27;13.23;;;2.55;;
33810;SDS011;20119;48.334;16.206;2024-01-27T15:51:54;6.60;;;2.08;;
33810;SDS011;20119;48.334;16.206;2024-01-27T15:54:21;7.78;;;2.35;;
33810;SDS011;20119;48.334;16.206;2024-01-27T15:56:50;7.72;;;2.60;;
33810;SDS011;20119;48.334;16.206;2024-01-27T15:59:17;8.23;;;2.40;;
33810;SDS011;20119;48.334;16.206;2024-01-27T16:01:44;9.40;;;2.30;;
33810;SDS011;20119;48.334;16.206;2024-01-27T16:06:48;7.57;;;3.22;;
33810;SDS011;20119;48.334;16.206;2024-01-27T16:11:52;9.18;;;3.42;;
33810;SDS011;20119;48.334;16.206;2024-01-27T16:14:21;7.10;;;3.30;;
33810;SDS011;20119;48.334;16.206;2024-01-27T16:19:24;6.72;;;2.88;;
33810;SDS011;20119;48.334;16.206;2024-01-27T16:27:05;7.90;;;2.50;;
33810;SDS011;20119;48.334;16.206;2024-01-27T16:29:32;7.75;;;2.88;;
33810;SDS011;20119;48.334;16.206;2024-01-27T16:31:59;7.45;;;2.80;;
33810;SDS011;20119;48.334;16.206;2024-01-27T16:37:03;8.70;;;2.90;;
33810;SDS011;20119;48.334;16.206;2024-01-27T16:39:30;8.27;;;2.83;;
33810;SDS011;20119;48.334;16.206;2024-01-27T16:41:57;7.50;;;2.83;;
33810;SDS011;20119;48.334;16.206;2024-01-27T16:44:26;6.55;;;2.63;;
33810;SDS011;20119;48.334;16.206;2024-01-27T16:46:56;8.02;;;2.83;;
33810;SDS011;20119;48.334;16.206;2024-01-27T16:49:23;8.57;;;3.13;;
33810;SDS011;20119;48.334;16.206;2024-01-27T16:57:02;7.25;;;3.65;;
33810;SDS011;20119;48.334;16.206;2024-01-27T16:59:31;10.40;;;3.95;;
33810;SDS011;20119;48.334;16.206;2024-01-27T17:01:58;10.57;;;3.58;;
33810;SDS011;20119;48.334;16.206;2024-01-27T17:07:01;8.20;;;2.97;;
33810;SDS011;20119;48.334;16.206;2024-01-27T17:14:41;11.05;;;4.50;;
33810;SDS011;20119;48.334;16.206;2024-01-27T17:17:09;9.65;;;4.82;;
33810;SDS011;20119;48.334;16.206;2024-01-27T17:19:36;8.50;;;4.53;;
33810;SDS011;20119;48.334;16.206;2024-01-27T17:22:03;9.05;;;4.60;;
33810;SDS011;20119;48.334;16.206;2024-01-27T17:24:30;9.82;;;4.50;;
33810;SDS011;20119;48.334;16.206;2024-01-27T17:29:33;11.25;;;5.85;;
33810;SDS011;20119;48.334;16.206;2024-01-27T17:32:02;13.35;;;5.95;;
33810;SDS011;20119;48.334;16.206;2024-01-27T17:34:30;15.05;;;6.07;;
33810;SDS011;20119;48.334;16.206;2024-01-27T17:36:58;12.65;;;5.35;;
33810;SDS011;20119;48.334;16.206;2024-01-27T17:39:26;10.57;;;5.28;;
33810;SDS011;20119;48.334;16.206;2024-01-27T17:44:29;11.80;;;4.85;;
33810;SDS011;20119;48.334;16.206;2024-01-27T17:52:09;11.57;;;5.80;;
33810;SDS011;20119;48.334;16.206;2024-01-27T17:54:37;16.25;;;5.45;;
33810;SDS011;20119;48.334;16.206;2024-01-27T17:57:04;14.15;;;5.50;;
33810;SDS011;20119;48.334;16.206;2024-01-27T17:59:33;11.30;;;5.68;;
33810;SDS011;20119;48.334;16.206;2024-01-27T18:02:00;12.00;;;5.22;;
33810;SDS011;20119;48.334;16.206;2024-01-27T18:04:27;12.55;;;5.43;;
33810;SDS011;20119;48.334;16.206;2024-01-27T18:12:08;12.23;;;5.70;;
33810;SDS011;20119;48.334;16.206;2024-01-27T18:17:10;9.30;;;5.30;;
33810;SDS011;20119;48.334;16.206;2024-01-27T18:19:38;11.82;;;5.88;;
33810;SDS011;20119;48.334;16.206;2024-01-27T18:22:05;11.88;;;5.60;;
33810;SDS011;20119;48.334;16.206;2024-01-27T18:24:33;13.32;;;5.60;;
33810;SDS011;20119;48.334;16.206;2024-01-27T18:29:38;16.88;;;5.95;;
33810;SDS011;20119;48.334;16.206;2024-01-27T18:32:05;16.00;;;6.13;;
33810;SDS011;20119;48.334;16.206;2024-01-27T18:34:33;13.60;;;5.70;;
33810;SDS011;20119;48.334;16.206;2024-01-27T18:39:35;11.63;;;5.50;;
33810;SDS011;20119;48.334;16.206;2024-01-27T18:42:03;13.18;;;5.75;;
33810;SDS011;20119;48.334;16.206;2024-01-27T18:49:43;13.20;;;5.47;;
33810;SDS011;20119;48.334;16.206;2024-01-27T18:52:10;12.48;;;5.90;;
33810;SDS011;20119;48.334;16.206;2024-01-27T19:05:02;15.95;;;5.68;;
33810;SDS011;20119;48.334;16.206;2024-01-27T19:07:32;13.88;;;5.18;;
33810;SDS011;20119;48.334;16.206;2024-01-27T19:10:03;12.50;;;5.47;;
33810;SDS011;20119;48.334;16.206;2024-01-27T19:12:39;13.10;;;5.45;;
33810;SDS011;20119;48.334;16.206;2024-01-27T19:15:06;12.15;;;5.38;;
33810;SDS011;20119;48.334;16.206;2024-01-27T19:22:47;14.15;;;5.57;;
33810;SDS011;20119;48.334;16.206;2024-01-27T19:25:15;17.27;;;6.20;;
33810;SDS011;20119;48.334;16.206;2024-01-27T19:27:42;13.40;;;6.45;;
33810;SDS011;20119;48.334;16.206;2024-01-27T19:32:38;14.15;;;5.90;;
33810;SDS011;20119;48.334;16.206;2024-01-27T19:37:41;13.40;;;5.70;;
33810;SDS011;20119;48.334;16.206;2024-01-27T19:45:22;12.20;;;5.25;;
33810;SDS011;20119;48.334;16.206;2024-01-27T19:50:25;12.77;;;5.60;;
33810;SDS011;20119;48.334;16.206;2024-01-27T19:52:52;15.95;;;6.05;;
33810;SDS011;20119;48.334;16.206;2024-01-27T19:55:20;15.60;;;6.38;;
33810;SDS011;20119;48.334;16.206;2024-01-27T19:57:47;13.48;;;5.80;;
33810;SDS011;20119;48.334;16.206;2024-01-27T20:00:15;11.60;;;5.63;;
33810;SDS011;20119;48.334;16.206;2024-01-27T20:02:47;15.35;;;5.78;;
33810;SDS011;20119;48.334;16.206;2024-01-27T20:05:15;11.35;;;5.75;;
33810;SDS011;20119;48.334;16.206;2024-01-27T20:10:18;14.02;;;6.03;;
33810;SDS011;20119;48.334;16.206;2024-01-27T20:12:46;12.93;;;5.70;;
33810;SDS011;20119;48.334;16.206;2024-01-27T20:17:52;13.68;;;6.05;;
33810;SDS011;20119;48.334;16.206;2024-01-27T20:20:21;13.77;;;5.70;;
33810;SDS011;20119;48.334;16.206;2024-01-27T20:22:50;12.85;;;5.90;;
33810;SDS011;20119;48.334;16.206;2024-01-27T20:25:18;16.40;;;6.03;;
33810;SDS011;20119;48.334;16.206;2024-01-27T20:27:46;14.30;;;6.45;;
33810;SDS011;20119;48.334;16.206;2024-01-27T20:30:13;17.15;;;6.53;;
33810;SDS011;20119;48.334;16.206;2024-01-27T20:40:30;12.77;;;5.50;;
33810;SDS011;20119;48.334;16.206;2024-01-27T20:42:58;14.20;;;6.25;;
33810;SDS011;20119;48.334;16.206;2024-01-27T20:45:26;12.60;;;6.03;;
33810;SDS011;20119;48.334;16.206;2024-01-27T20:47:53;14.02;;;5.97;;
33810;SDS011;20119;48.334;16.206;2024-01-27T20:50:20;14.23;;;6.85;;
33810;SDS011;20119;48.334;16.206;2024-01-27T20:52:50;15.63;;;6.50;;
33810;SDS011;20119;48.334;16.206;2024-01-27T20:55:17;13.15;;;5.70;;
33810;SDS011;20119;48.334;16.206;2024-01-27T20:57:46;14.35;;;6.35;;
33810;SDS011;20119;48.334;16.206;2024-01-27T21:00:13;13.77;;;6.03;;
33810;SDS011;20119;48.334;16.206;2024-01-27T21:10:28;17.48;;;6.78;;
33810;SDS011;20119;48.334;16.206;2024-01-27T21:12:57;13.85;;;6.50;;
33810;SDS011;20119;48.334;16.206;2024-01-27T21:15:24;12.18;;;6.20;;
33810;SDS011;20119;48.334;16.206;2024-01-27T21:17:52;13.13;;;6.50;;
33810;SDS011;20119;48.334;16.206;2024-01-27T21:20:20;11.05;;;6.15;;
33810;SDS011;20119;48.334;16.206;2024-01-27T21:22:47;15.45;;;6.55;;
33810;SDS011;20119;48.334;16.206;2024-01-27T21:27:50;14.38;;;7.07;;
33810;SDS011;20119;48.334;16.206;2024-01-27T21:30:19;16.73;;;7.20;;
33810;SDS011;20119;48.334;16.206;2024-01-27T21:40:28;15.50;;;6.20;;
33810;SDS011;20119;48.334;16.206;2024-01-27T21:42:55;12.98;;;6.30;;
33810;SDS011;20119;48.334;16.206;2024-01-27T21:45:24;16.33;;;7.07;;
33810;SDS011;20119;48.334;16.206;2024-01-27T21:55:39;17.95;;;7.38;;
33810;SDS011;20119;48.334;16.206;2024-01-27T21:58:06;13.52;;;7.35;;
33810;SDS011;20119;48.334;16.206;2024-01-27T22:03:11;18.23;;;6.85;;
33810;SDS011;20119;48.334;16.206;2024-01-27T22:08:14;13.27;;;6.70;;
33810;SDS011;20119;48.334;16.206;2024-01-27T22:11:00;15.90;;;7.20;;
33810;SDS011;20119;48.334;16.206;2024-01-27T22:13:29;20.42;;;7.10;;
33810;SDS011;20119;48.334;16.206;2024-01-27T22:15:56;12.73;;;6.97;;
33810;SDS011;20119;48.334;16.206;2024-01-27T22:18:25;14.73;;;7.53;;
33810;SDS011;20119;48.334;16.206;2024-01-27T22:23:28;19.63;;;8.13;;
33810;SDS011;20119;48.334;16.206;2024-01-27T22:28:31;15.05;;;8.15;;
33810;SDS011;20119;48.334;16.206;2024-01-27T22:36:11;16.38;;;8.50;;
33810;SDS011;20119;48.334;16.206;2024-01-27T22:38:40;18.10;;;8.33;;
33810;SDS011;20119;48.334;16.206;2024-01-27T22:48:55;22.88;;;9.32;;
33810;SDS011;20119;48.334;16.206;2024-01-27T22:51:24;17.98;;;9.00;;
33810;SDS011;20119;48.334;16.206;2024-01-27T22:53:52;16.85;;;8.35;;